Manchester, Pennsylvania
Current Conditions -  °F | °C
As of 9:14 PM on Monday 22 Dec 2014 (Local Time) from KMDT Reporting Station
Haze Haze  
Wind Chill: 29°   Ceiling: 500
Heat Index: 33°   Visibility: 2mi
Dew Point: 32°   Wind: 5mph
Humidity: 96%   Direction: 320°NW
Pressure: 30.16"   Gusts: NA
Location:  40.06°N, 76.72°W
Report Text: KMDT 230214Z 32004KT 2SM BR BKN005 OVC015 01/00 A3016 RMK AO2 SFC VIS 2 1/2 CIG 003V009 T00060000
Loading
Personal Weather Stations






























Interactive Weather Map New forecast layout! Learn more

10-Day Weather Forecast

Advertisements
Track Severe Weather on mobile